createdAt,value
2018-06-12T00:01:40.708Z,0.00
2018-06-12T00:02:40.658Z,0.00
2018-06-12T00:04:33.533Z,0.00
2018-06-12T00:05:33.503Z,0.00
2018-06-12T00:07:26.415Z,0.00
2018-06-12T00:08:26.349Z,0.00
2018-06-12T00:10:19.227Z,0.00
2018-06-12T00:11:19.205Z,0.00
2018-06-12T00:13:12.108Z,0.00
2018-06-12T00:14:12.050Z,0.00
2018-06-12T00:16:04.947Z,0.00
2018-06-12T00:18:57.808Z,0.00
2018-06-12T00:19:57.760Z,0.00
2018-06-12T00:21:50.636Z,0.00
2018-06-12T00:22:50.606Z,0.00
2018-06-12T00:24:43.507Z,0.00
2018-06-12T00:25:43.460Z,0.00
2018-06-12T00:27:36.370Z,0.00
2018-06-12T00:28:36.309Z,0.00
2018-06-12T00:30:29.183Z,0.00
2018-06-12T00:31:29.162Z,0.00
2018-06-12T00:33:22.054Z,0.00
2018-06-12T00:34:22.013Z,0.00
2018-06-12T00:36:14.894Z,0.00
2018-06-12T00:37:14.864Z,0.00
2018-06-12T00:39:07.791Z,0.00
2018-06-12T00:40:07.714Z,0.00
2018-06-12T00:42:00.589Z,0.00
2018-06-12T00:43:00.562Z,0.00
2018-06-12T00:44:53.464Z,0.00
2018-06-12T00:45:53.414Z,0.00
2018-06-12T00:47:46.295Z,0.00
2018-06-12T00:48:46.259Z,0.00
2018-06-12T00:50:39.167Z,0.00
2018-06-12T00:51:39.107Z,0.00
2018-06-12T00:53:31.999Z,0.00
2018-06-12T00:54:31.960Z,0.00
2018-06-12T00:56:24.864Z,0.00
2018-06-12T00:57:24.816Z,0.00
2018-06-12T00:59:17.720Z,0.00
2018-06-12T01:00:17.664Z,0.00
2018-06-12T01:02:10.583Z,0.00
2018-06-12T01:03:10.520Z,0.00
2018-06-12T01:05:03.410Z,0.00
2018-06-12T01:06:03.372Z,0.00
2018-06-12T01:07:56.242Z,0.00
2018-06-12T01:08:56.217Z,0.00
2018-06-12T01:10:49.134Z,0.00
2018-06-12T01:11:49.075Z,0.00
2018-06-12T01:13:41.948Z,0.00
2018-06-12T01:14:41.927Z,0.00
2018-06-12T01:16:34.831Z,0.00
2018-06-12T01:17:34.769Z,0.00
2018-06-12T01:19:27.647Z,0.00
2018-06-12T01:20:27.619Z,0.00
2018-06-12T01:22:20.522Z,0.00
2018-06-12T01:23:20.473Z,0.00
2018-06-12T01:25:13.373Z,0.00
2018-06-12T01:26:13.321Z,0.00
2018-06-12T01:28:06.234Z,0.00
2018-06-12T01:29:06.175Z,0.00
2018-06-12T01:30:59.048Z,0.00
2018-06-12T01:31:59.027Z,0.00
2018-06-12T01:33:51.936Z,0.00
2018-06-12T01:34:51.871Z,0.00
2018-06-12T01:36:44.749Z,0.00
2018-06-12T01:37:44.716Z,0.00
2018-06-12T01:39:37.626Z,0.00
2018-06-12T01:40:37.573Z,0.00
2018-06-12T01:42:30.453Z,0.00
2018-06-12T01:43:30.436Z,0.00
2018-06-12T01:45:23.850Z,0.00
2018-06-12T01:46:23.789Z,0.00
2018-06-12T01:48:16.671Z,0.00
2018-06-12T01:49:16.641Z,0.00
2018-06-12T01:51:09.552Z,0.00
2018-06-12T01:52:09.486Z,0.00
2018-06-12T01:54:02.338Z,0.00
2018-06-12T01:55:02.302Z,0.00
2018-06-12T01:56:55.242Z,0.00
2018-06-12T01:57:55.187Z,0.00
2018-06-12T01:59:48.064Z,0.00
2018-06-12T02:00:48.044Z,0.00
2018-06-12T02:02:40.944Z,0.00
2018-06-12T02:03:40.887Z,0.00
2018-06-12T02:05:33.767Z,0.00
2018-06-12T02:06:33.744Z,0.00
2018-06-12T02:08:26.609Z,0.00
2018-06-12T02:13:43.974Z,0.00
2018-06-12T02:14:43.935Z,0.00
2018-06-12T02:16:36.820Z,0.00
2018-06-12T02:17:36.778Z,0.00
2018-06-12T02:19:29.675Z,0.00
2018-06-12T02:20:29.639Z,0.00
2018-06-12T02:22:22.513Z,0.00
2018-06-12T02:23:22.489Z,0.00
2018-06-12T02:25:15.386Z,0.00
2018-06-12T02:26:15.331Z,0.00
2018-06-12T02:28:08.208Z,0.00
2018-06-12T02:29:08.184Z,0.00
2018-06-12T02:31:01.088Z,0.00
2018-06-12T02:32:01.029Z,0.00
2018-06-12T02:33:53.912Z,0.00
2018-06-12T02:34:53.880Z,0.00
2018-06-12T02:36:46.785Z,0.00
2018-06-12T02:37:46.731Z,0.00
2018-06-12T02:39:39.611Z,0.00
2018-06-12T02:40:39.592Z,0.00
2018-06-12T02:42:32.480Z,0.00
2018-06-12T02:43:32.489Z,0.00
2018-06-12T02:44:32.428Z,0.00
2018-06-12T02:45:32.382Z,0.00
2018-06-12T02:46:32.363Z,4.00
2018-06-12T02:47:32.335Z,4.00
2018-06-12T02:48:32.315Z,4.00
2018-06-12T02:49:32.286Z,0.00
2018-06-12T02:50:32.262Z,0.00
2018-06-12T02:51:32.237Z,4.00
2018-06-12T02:52:32.212Z,4.00
2018-06-12T02:53:32.196Z,0.00
2018-06-12T02:54:32.163Z,0.00
2018-06-12T02:55:32.146Z,0.00
2018-06-12T02:56:32.127Z,4.00
2018-06-12T02:57:32.094Z,4.00
2018-06-12T02:58:32.067Z,8.00
2018-06-12T02:59:32.069Z,4.00
2018-06-12T03:00:32.018Z,4.00
2018-06-12T03:01:32.003Z,8.00
2018-06-12T03:02:31.987Z,4.00
2018-06-12T03:03:31.943Z,8.00
2018-06-12T03:04:31.920Z,8.00
2018-06-12T03:05:31.892Z,8.00
2018-06-12T03:06:31.873Z,12.00
2018-06-12T03:07:31.854Z,16.00
2018-06-12T03:08:31.830Z,16.00
2018-06-12T03:09:31.800Z,20.00
2018-06-12T03:10:31.781Z,24.00
2018-06-12T03:11:31.754Z,24.00
2018-06-12T03:12:31.730Z,24.00
2018-06-12T03:13:31.701Z,24.00
2018-06-12T03:14:31.674Z,24.00
2018-06-12T03:15:31.955Z,24.00
2018-06-12T03:16:31.634Z,32.00
2018-06-12T03:17:31.602Z,32.00
2018-06-12T03:18:31.585Z,32.00
2018-06-12T03:19:31.559Z,32.00
2018-06-12T03:20:31.528Z,40.00
2018-06-12T03:21:31.506Z,44.00
2018-06-12T03:22:31.481Z,44.00
2018-06-12T03:23:31.462Z,48.00
2018-06-12T03:24:31.486Z,44.00
2018-06-12T03:25:31.407Z,52.00
2018-06-12T03:26:31.394Z,52.00
2018-06-12T03:27:31.363Z,48.00
2018-06-12T03:28:31.342Z,60.00
2018-06-12T03:29:31.308Z,60.00
2018-06-12T03:30:31.286Z,60.00
2018-06-12T03:31:31.266Z,60.00
2018-06-12T03:32:31.240Z,68.00
2018-06-12T03:33:31.212Z,68.00
2018-06-12T03:34:31.191Z,72.00
2018-06-12T03:35:31.170Z,80.00
2018-06-12T03:36:31.141Z,88.00
2018-06-12T03:37:31.112Z,96.00
2018-06-12T03:38:31.090Z,100.00
2018-06-12T03:39:31.071Z,104.00
2018-06-12T03:40:31.040Z,108.00
2018-06-12T03:41:31.027Z,104.00
2018-06-12T03:42:31.001Z,100.00
2018-06-12T03:43:30.968Z,96.00
2018-06-12T03:44:30.950Z,108.00
2018-06-12T03:45:30.921Z,112.00
2018-06-12T03:46:30.901Z,128.00
2018-06-12T03:47:30.870Z,128.00
2018-06-12T03:48:30.848Z,124.00
2018-06-12T03:49:30.828Z,136.00
2018-06-12T03:50:30.799Z,144.00
2018-06-12T03:51:30.782Z,140.00
2018-06-12T03:52:30.749Z,140.00
2018-06-12T03:53:30.730Z,144.00
2018-06-12T03:54:30.706Z,188.00
2018-06-12T03:55:30.684Z,196.00
2018-06-12T03:56:30.658Z,200.00
2018-06-12T03:57:30.685Z,196.00
2018-06-12T03:58:30.635Z,208.00
2018-06-12T03:59:30.581Z,212.00
2018-06-12T04:00:30.562Z,216.00
2018-06-12T04:01:30.529Z,236.00
2018-06-12T04:02:30.511Z,284.00
2018-06-12T04:03:30.486Z,316.00
2018-06-12T04:04:30.458Z,312.00
2018-06-12T04:05:30.438Z,332.00
2018-06-12T04:06:30.415Z,392.00
2018-06-12T04:07:30.384Z,400.00
2018-06-12T04:08:30.365Z,372.00
2018-06-12T04:09:30.338Z,328.00
2018-06-12T04:10:30.316Z,380.00
2018-06-12T04:11:30.285Z,340.00
2018-06-12T04:12:30.260Z,328.00
2018-06-12T04:13:30.247Z,396.00
2018-06-12T04:14:30.212Z,384.00
2018-06-12T04:15:30.189Z,372.00
2018-06-12T04:16:30.217Z,424.00
2018-06-12T04:17:30.140Z,428.00
2018-06-12T04:18:30.117Z,396.00
2018-06-12T04:19:30.097Z,416.00
2018-06-12T04:20:30.110Z,448.00
2018-06-12T04:21:30.040Z,404.00
2018-06-12T04:22:30.017Z,420.00
2018-06-12T04:23:29.997Z,476.00
2018-06-12T04:24:29.972Z,464.00
2018-06-12T04:25:29.945Z,476.00
2018-06-12T04:26:29.921Z,504.00
2018-06-12T04:27:29.896Z,528.00
2018-06-12T04:28:29.879Z,516.00
2018-06-12T04:29:29.851Z,520.00
2018-06-12T04:30:29.824Z,484.00
2018-06-12T04:31:29.797Z,476.00
2018-06-12T04:32:29.782Z,488.00
2018-06-12T04:33:29.745Z,528.00
2018-06-12T04:34:29.723Z,532.00
2018-06-12T04:35:29.702Z,496.00
2018-06-12T04:36:29.680Z,576.00
2018-06-12T04:37:29.651Z,668.00
2018-06-12T04:38:29.624Z,612.00
2018-06-12T04:39:29.611Z,572.00
2018-06-12T04:40:29.584Z,608.00
2018-06-12T04:41:29.560Z,704.00
2018-06-12T04:42:29.529Z,820.00
2018-06-12T04:43:29.510Z,776.00
2018-06-12T04:44:29.484Z,780.00
2018-06-12T04:45:29.456Z,800.00
2018-06-12T04:46:29.429Z,920.00
2018-06-12T04:47:29.407Z,904.00
2018-06-12T04:48:29.387Z,836.00
2018-06-12T04:49:29.358Z,988.00
2018-06-12T04:50:29.336Z,1036.00
2018-06-12T04:51:29.312Z,952.00
2018-06-12T04:52:29.287Z,924.00
2018-06-12T04:53:29.263Z,1004.00
2018-06-12T04:54:29.239Z,956.00
2018-06-12T04:55:29.216Z,872.00
2018-06-12T04:56:29.185Z,948.00
2018-06-12T04:57:29.170Z,960.00
2018-06-12T04:58:29.136Z,844.00
2018-06-12T04:59:29.147Z,756.00
2018-06-12T05:00:29.091Z,696.00
2018-06-12T05:01:29.070Z,676.00
2018-06-12T05:02:29.043Z,652.00
2018-06-12T05:03:29.016Z,668.00
2018-06-12T05:04:29.001Z,676.00
2018-06-12T05:05:28.964Z,776.00
2018-06-12T05:06:28.945Z,884.00
2018-06-12T05:07:28.924Z,872.00
2018-06-12T05:08:28.892Z,820.00
2018-06-12T05:09:28.876Z,828.00
2018-06-12T05:10:28.865Z,776.00
2018-06-12T05:11:28.824Z,800.00
2018-06-12T05:12:28.797Z,876.00
2018-06-12T05:13:28.779Z,896.00
2018-06-12T05:14:28.749Z,940.00
2018-06-12T05:15:28.732Z,980.00
2018-06-12T05:16:28.706Z,1008.00
2018-06-12T05:17:28.671Z,1036.00
2018-06-12T05:18:28.657Z,1072.00
2018-06-12T05:19:28.623Z,1180.00
2018-06-12T05:20:28.609Z,1400.00
2018-06-12T05:21:28.577Z,1472.00
2018-06-12T05:22:28.561Z,1408.00
2018-06-12T05:23:28.527Z,1480.00
2018-06-12T05:24:28.502Z,1572.00
2018-06-12T05:25:28.533Z,1600.00
2018-06-12T05:26:28.452Z,1832.00
2018-06-12T05:27:28.466Z,2032.00
2018-06-12T05:28:28.412Z,2088.00
2018-06-12T05:29:28.380Z,2056.00
2018-06-12T05:30:28.356Z,2120.00
2018-06-12T05:31:28.337Z,2004.00
2018-06-12T05:32:28.308Z,2144.00
2018-06-12T05:33:28.292Z,2108.00
2018-06-12T05:34:28.266Z,2168.00
2018-06-12T05:35:28.239Z,2092.00
2018-06-12T05:36:28.214Z,2084.00
2018-06-12T05:37:28.187Z,2080.00
2018-06-12T05:38:28.167Z,2084.00
2018-06-12T05:39:28.141Z,2052.00
2018-06-12T05:40:28.115Z,2012.00
2018-06-12T05:41:28.091Z,2044.00
2018-06-12T05:42:28.066Z,2076.00
2018-06-12T05:43:28.046Z,2048.00
2018-06-12T05:44:28.023Z,1992.00
2018-06-12T05:45:27.993Z,2044.00
2018-06-12T05:46:27.968Z,2076.00
2018-06-12T05:47:27.953Z,2116.00
2018-06-12T05:48:27.920Z,2132.00
2018-06-12T05:49:27.896Z,2192.00
2018-06-12T05:50:27.877Z,2192.00
2018-06-12T05:51:27.845Z,2184.00
2018-06-12T05:52:27.825Z,2136.00
2018-06-12T05:53:27.800Z,2080.00
2018-06-12T05:54:27.780Z,2120.00
2018-06-12T05:55:27.747Z,2104.00
2018-06-12T05:56:27.724Z,2340.00
2018-06-12T05:57:27.719Z,2608.00
2018-06-12T05:58:27.680Z,2088.00
2018-06-12T05:59:27.656Z,2180.00
2018-06-12T06:00:27.635Z,2268.00
2018-06-12T06:01:27.601Z,2404.00
2018-06-12T06:02:27.593Z,2408.00
2018-06-12T06:03:27.555Z,2352.00
2018-06-12T06:04:27.531Z,2484.00
2018-06-12T06:05:27.513Z,2724.00
2018-06-12T06:06:27.478Z,2712.00
2018-06-12T06:07:27.466Z,2840.00
2018-06-12T06:08:27.438Z,2952.00
2018-06-12T06:09:27.409Z,3072.00
2018-06-12T06:10:27.386Z,3084.00
2018-06-12T06:11:27.371Z,3080.00
2018-06-12T06:12:27.344Z,3004.00
2018-06-12T06:13:27.318Z,2968.00
2018-06-12T06:14:27.298Z,3156.00
2018-06-12T06:15:27.265Z,3212.00
2018-06-12T06:16:27.241Z,3216.00
2018-06-12T06:17:27.225Z,3280.00
2018-06-12T06:18:27.192Z,3428.00
2018-06-12T06:19:27.177Z,3496.00
2018-06-12T06:20:27.151Z,3548.00
2018-06-12T06:21:27.125Z,3528.00
2018-06-12T06:22:27.128Z,3528.00
2018-06-12T06:23:27.069Z,3436.00
2018-06-12T06:24:27.056Z,3388.00
2018-06-12T06:25:27.028Z,3292.00
2018-06-12T06:26:27.011Z,3120.00
2018-06-12T06:27:26.980Z,3308.00
2018-06-12T06:28:26.955Z,3416.00
2018-06-12T06:29:26.927Z,3472.00
2018-06-12T06:30:26.911Z,3512.00
2018-06-12T06:31:26.883Z,3568.00
2018-06-12T06:32:26.860Z,3656.00
2018-06-12T06:33:26.829Z,3664.00
2018-06-12T06:34:26.807Z,3720.00
2018-06-12T06:35:26.786Z,3692.00
2018-06-12T06:36:26.758Z,3692.00
2018-06-12T06:37:26.741Z,3632.00
2018-06-12T06:38:26.714Z,3592.00
2018-06-12T06:39:26.686Z,3480.00
2018-06-12T06:40:26.668Z,3576.00
2018-06-12T06:41:26.638Z,3744.00
2018-06-12T06:42:26.612Z,3808.00
2018-06-12T06:43:26.599Z,3884.00
2018-06-12T06:44:26.568Z,3944.00
2018-06-12T06:45:26.548Z,3932.00
2018-06-12T06:46:26.525Z,4068.00
2018-06-12T06:47:26.494Z,4220.00
2018-06-12T06:48:26.474Z,4344.00
2018-06-12T06:49:26.447Z,4428.00
2018-06-12T06:50:26.421Z,4516.00
2018-06-12T06:51:26.406Z,4552.00
2018-06-12T06:52:26.376Z,4588.00
2018-06-12T06:53:26.355Z,4592.00
2018-06-12T06:54:26.345Z,4612.00
2018-06-12T06:55:26.301Z,4632.00
2018-06-12T06:56:26.344Z,4660.00
2018-06-12T06:57:26.256Z,4684.00
2018-06-12T06:58:26.232Z,4716.00
2018-06-12T06:59:26.212Z,4732.00
2018-06-12T07:00:26.187Z,4752.00
2018-06-12T07:01:26.167Z,4768.00
2018-06-12T07:02:26.133Z,4764.00
2018-06-12T07:03:26.119Z,4756.00
2018-06-12T07:04:26.097Z,4768.00
2018-06-12T07:05:26.067Z,4784.00
2018-06-12T07:06:26.050Z,4800.00
2018-06-12T07:07:26.016Z,4856.00
2018-06-12T07:08:25.991Z,4836.00
2018-06-12T07:09:25.975Z,4840.00
2018-06-12T07:10:25.943Z,4824.00
2018-06-12T07:11:25.929Z,4748.00
2018-06-12T07:12:25.899Z,4776.00
2018-06-12T07:13:25.872Z,4804.00
2018-06-12T07:14:25.855Z,4776.00
2018-06-12T07:15:25.826Z,4756.00
2018-06-12T07:16:25.808Z,4760.00
2018-06-12T07:17:25.777Z,4768.00
2018-06-12T07:18:25.759Z,4788.00
2018-06-12T07:19:25.726Z,4796.00
2018-06-12T07:20:25.707Z,4808.00
2018-06-12T07:21:25.686Z,4792.00
2018-06-12T07:22:25.661Z,4832.00
2018-06-12T07:23:25.631Z,4864.00
2018-06-12T07:24:25.611Z,4864.00
2018-06-12T07:25:25.593Z,4796.00
2018-06-12T07:26:25.579Z,4764.00
2018-06-12T07:27:25.541Z,4788.00
2018-06-12T07:28:25.518Z,4800.00
2018-06-12T07:29:25.491Z,4868.00
2018-06-12T07:30:25.466Z,4872.00
2018-06-12T07:31:25.446Z,4896.00
2018-06-12T07:32:25.422Z,4908.00
2018-06-12T07:33:25.396Z,4916.00
2018-06-12T07:34:25.368Z,4948.00
2018-06-12T07:35:25.351Z,4980.00
2018-06-12T07:36:25.330Z,5100.00
2018-06-12T07:37:25.298Z,5076.00
2018-06-12T07:38:25.275Z,5096.00
2018-06-12T07:39:25.254Z,5056.00
2018-06-12T07:40:25.227Z,5096.00
2018-06-12T07:41:25.211Z,5232.00
2018-06-12T07:42:25.184Z,5344.00
2018-06-12T07:43:25.164Z,5404.00
2018-06-12T07:44:25.131Z,5488.00
2018-06-12T07:45:25.115Z,5516.00
2018-06-12T07:46:25.085Z,5404.00
2018-06-12T07:47:25.067Z,5400.00
2018-06-12T07:48:25.045Z,5444.00
2018-06-12T07:49:25.019Z,5484.00
2018-06-12T07:50:24.990Z,5536.00
2018-06-12T07:51:24.965Z,5528.00
2018-06-12T07:52:24.948Z,5372.00
2018-06-12T07:53:24.920Z,5260.00
2018-06-12T07:54:24.896Z,5372.00
2018-06-12T07:55:24.880Z,5360.00
2018-06-12T07:56:24.854Z,5512.00
2018-06-12T07:57:24.823Z,5708.00
2018-06-12T07:58:24.803Z,5836.00
2018-06-12T07:59:24.779Z,5888.00
2018-06-12T08:00:24.759Z,5924.00
2018-06-12T08:01:24.734Z,5892.00
2018-06-12T08:02:24.710Z,5928.00
2018-06-12T08:03:24.682Z,6012.00
2018-06-12T08:04:24.665Z,6132.00
2018-06-12T08:05:24.641Z,6212.00
2018-06-12T08:06:24.610Z,6272.00
2018-06-12T08:07:24.597Z,6280.00
2018-06-12T08:08:24.586Z,6344.00
2018-06-12T08:09:24.539Z,6388.00
2018-06-12T08:10:24.520Z,6504.00
2018-06-12T08:11:24.500Z,6540.00
2018-06-12T08:12:24.478Z,6544.00
2018-06-12T08:13:24.453Z,6528.00
2018-06-12T08:14:26.044Z,6544.00
2018-06-12T08:15:25.955Z,6584.00
2018-06-12T08:16:27.060Z,6648.00
2018-06-12T08:17:24.361Z,6684.00
2018-06-12T08:18:24.329Z,6620.00
2018-06-12T08:19:24.310Z,6632.00
2018-06-12T08:20:24.284Z,6644.00
2018-06-12T08:21:24.258Z,6616.00
2018-06-12T08:22:24.238Z,6596.00
2018-06-12T08:23:24.220Z,6556.00
2018-06-12T08:24:24.196Z,6464.00
2018-06-12T08:25:24.169Z,6440.00
2018-06-12T08:26:24.156Z,6424.00
2018-06-12T08:27:24.128Z,6460.00
2018-06-12T08:28:24.101Z,6368.00
2018-06-12T08:29:24.078Z,6240.00
2018-06-12T08:30:24.137Z,6132.00
2018-06-12T08:31:24.032Z,6112.00
2018-06-12T08:32:24.007Z,6092.00
2018-06-12T08:33:23.986Z,6092.00
2018-06-12T08:34:23.965Z,6160.00
2018-06-12T08:35:23.933Z,6168.00
2018-06-12T08:36:23.921Z,6188.00
2018-06-12T08:37:23.899Z,6360.00
2018-06-12T08:38:23.869Z,6424.00
2018-06-12T08:39:23.858Z,6420.00
2018-06-12T08:40:23.827Z,6372.00
2018-06-12T08:41:23.794Z,6380.00
2018-06-12T08:42:23.772Z,6356.00
2018-06-12T08:43:23.752Z,6376.00
2018-06-12T08:44:23.724Z,6304.00
2018-06-12T08:45:23.713Z,6108.00
2018-06-12T08:46:23.711Z,5996.00
2018-06-12T08:47:23.659Z,5996.00
2018-06-12T08:48:23.633Z,6056.00
2018-06-12T08:49:23.617Z,6108.00
2018-06-12T08:50:23.587Z,6196.00
2018-06-12T08:51:23.569Z,6212.00
2018-06-12T08:52:23.549Z,6320.00
2018-06-12T08:53:23.521Z,6276.00
2018-06-12T08:54:23.502Z,6328.00
2018-06-12T08:55:23.473Z,6224.00
2018-06-12T08:56:23.465Z,6260.00
2018-06-12T08:57:23.431Z,6296.00
2018-06-12T08:58:23.406Z,6228.00
2018-06-12T08:59:23.394Z,6180.00
2018-06-12T09:00:23.364Z,6124.00
2018-06-12T09:01:23.344Z,6324.00
2018-06-12T09:02:23.312Z,6396.00
2018-06-12T09:03:23.293Z,6364.00
2018-06-12T09:04:23.268Z,6560.00
2018-06-12T09:05:23.245Z,6572.00
2018-06-12T09:06:23.226Z,6608.00
2018-06-12T09:07:23.197Z,6632.00
2018-06-12T09:08:23.169Z,6836.00
2018-06-12T09:09:23.155Z,6880.00
2018-06-12T09:10:23.139Z,6900.00
2018-06-12T09:11:23.111Z,7064.00
2018-06-12T09:12:23.092Z,7172.00
2018-06-12T09:13:23.054Z,7308.00
2018-06-12T09:14:23.046Z,7284.00
2018-06-12T09:15:23.020Z,7276.00
2018-06-12T09:16:23.003Z,7360.00
2018-06-12T09:17:22.966Z,7312.00
2018-06-12T09:18:22.944Z,7248.00
2018-06-12T09:19:22.924Z,7136.00
2018-06-12T09:20:22.893Z,7012.00
2018-06-12T09:21:22.879Z,6788.00
2018-06-12T09:22:22.855Z,6736.00
2018-06-12T09:23:22.834Z,6780.00
2018-06-12T09:24:22.860Z,6840.00
2018-06-12T09:25:23.017Z,6876.00
2018-06-12T09:26:22.766Z,6900.00
2018-06-12T09:27:22.733Z,7008.00
2018-06-12T09:28:22.718Z,6668.00
2018-06-12T09:29:22.693Z,6700.00
2018-06-12T09:30:22.670Z,6660.00
2018-06-12T09:31:22.649Z,6680.00
2018-06-12T09:32:22.623Z,6628.00
2018-06-12T09:33:22.605Z,6484.00
2018-06-12T09:34:22.626Z,6508.00
2018-06-12T09:35:22.552Z,6336.00
2018-06-12T09:36:22.534Z,6336.00
2018-06-12T09:37:22.607Z,6432.00
2018-06-12T09:38:22.538Z,6448.00
2018-06-12T09:39:22.471Z,6448.00
2018-06-12T09:40:22.446Z,6444.00
2018-06-12T09:41:22.418Z,6424.00
2018-06-12T09:42:22.392Z,6376.00
2018-06-12T09:43:22.371Z,6368.00
2018-06-12T09:44:22.350Z,6212.00
2018-06-12T09:45:22.399Z,6220.00
2018-06-12T09:46:22.315Z,6252.00
2018-06-12T09:47:22.279Z,6292.00
2018-06-12T09:48:22.255Z,6212.00
2018-06-12T09:49:22.236Z,6096.00
2018-06-12T09:50:22.210Z,6064.00
2018-06-12T09:51:22.193Z,6100.00
2018-06-12T09:52:22.172Z,6128.00
2018-06-12T09:53:22.137Z,6212.00
2018-06-12T09:54:22.125Z,6272.00
2018-06-12T09:55:22.094Z,6304.00
2018-06-12T09:56:22.076Z,6396.00
2018-06-12T09:57:22.056Z,6540.00
2018-06-12T09:58:22.030Z,6564.00
2018-06-12T09:59:22.010Z,6624.00
2018-06-12T10:00:21.980Z,6712.00
2018-06-12T10:01:21.961Z,6792.00
2018-06-12T10:02:21.937Z,6920.00
2018-06-12T10:03:21.919Z,7016.00
2018-06-12T10:04:21.904Z,7124.00
2018-06-12T10:05:21.868Z,7252.00
2018-06-12T10:06:21.851Z,7388.00
2018-06-12T10:07:21.820Z,7516.00
2018-06-12T10:08:21.802Z,7596.00
2018-06-12T10:09:21.780Z,7628.00
2018-06-12T10:10:21.754Z,7644.00
2018-06-12T10:11:21.736Z,7656.00
2018-06-12T10:12:21.713Z,7588.00
2018-06-12T10:13:21.682Z,7564.00
2018-06-12T10:14:21.668Z,7528.00
2018-06-12T10:15:21.653Z,7512.00
2018-06-12T10:16:21.619Z,7616.00
2018-06-12T10:17:21.594Z,7560.00
2018-06-12T10:18:21.568Z,7568.00
2018-06-12T10:19:21.554Z,7428.00
2018-06-12T10:20:21.525Z,7328.00
2018-06-12T10:21:21.507Z,7216.00
2018-06-12T10:22:21.487Z,7272.00
2018-06-12T10:23:21.454Z,7256.00
2018-06-12T10:24:21.443Z,7388.00
2018-06-12T10:25:21.409Z,7504.00
2018-06-12T10:26:21.391Z,7592.00
2018-06-12T10:27:21.442Z,7616.00
2018-06-12T10:28:21.344Z,7640.00
2018-06-12T10:29:21.481Z,7652.00
2018-06-12T10:30:21.341Z,7632.00
2018-06-12T10:31:21.387Z,7596.00
2018-06-12T10:32:21.320Z,7544.00
2018-06-12T10:33:21.269Z,7460.00
2018-06-12T10:34:21.251Z,7504.00
2018-06-12T10:35:21.190Z,7376.00
2018-06-12T10:36:21.214Z,7352.00
2018-06-12T10:37:21.257Z,7328.00
2018-06-12T10:38:21.123Z,7304.00
2018-06-12T10:39:21.159Z,7296.00
2018-06-12T10:40:21.090Z,7308.00
2018-06-12T10:41:21.064Z,7316.00
2018-06-12T10:42:21.115Z,7312.00
2018-06-12T10:43:21.047Z,7396.00
2018-06-12T10:44:20.989Z,7568.00
2018-06-12T10:45:21.019Z,7668.00
2018-06-12T10:46:20.981Z,7708.00
2018-06-12T10:47:20.919Z,7768.00
2018-06-12T10:48:20.895Z,7824.00
2018-06-12T10:49:20.908Z,7812.00
2018-06-12T10:50:20.900Z,7848.00
2018-06-12T10:51:20.890Z,7864.00
2018-06-12T10:52:20.803Z,7864.00
2018-06-12T10:53:20.827Z,7808.00
2018-06-12T10:54:20.785Z,7696.00
2018-06-12T10:55:20.739Z,7664.00
2018-06-12T10:56:20.719Z,7652.00
2018-06-12T10:57:20.755Z,7656.00
2018-06-12T10:58:20.723Z,7684.00
2018-06-12T10:59:20.640Z,7744.00
2018-06-12T11:00:20.732Z,7876.00
2018-06-12T11:01:20.606Z,7948.00
2018-06-12T11:02:20.595Z,7968.00
2018-06-12T11:03:20.559Z,8032.00
2018-06-12T11:04:20.657Z,8152.00
2018-06-12T11:05:20.514Z,8148.00
2018-06-12T11:06:20.485Z,8200.00
2018-06-12T11:07:20.535Z,8148.00
2018-06-12T11:08:20.443Z,8124.00
2018-06-12T11:09:20.448Z,8112.00
2018-06-12T11:10:20.398Z,8136.00
2018-06-12T11:11:20.375Z,8080.00
2018-06-12T11:12:20.356Z,8048.00
2018-06-12T11:13:20.342Z,8060.00
2018-06-12T11:14:20.367Z,8076.00
2018-06-12T11:15:20.303Z,8096.00
2018-06-12T11:16:20.262Z,8168.00
2018-06-12T11:17:20.241Z,8256.00
2018-06-12T11:18:20.273Z,8364.00
2018-06-12T11:19:20.197Z,8392.00
2018-06-12T11:20:20.171Z,8380.00
2018-06-12T11:21:20.147Z,8348.00
2018-06-12T11:22:20.121Z,8304.00
2018-06-12T11:23:20.163Z,8220.00
2018-06-12T11:24:20.079Z,8160.00
2018-06-12T11:25:20.058Z,8052.00
2018-06-12T11:26:20.075Z,8008.00
2018-06-12T11:27:20.054Z,7908.00
2018-06-12T11:28:20.138Z,7784.00
2018-06-12T11:29:19.966Z,7652.00
2018-06-12T11:30:19.949Z,7576.00
2018-06-12T11:31:19.923Z,7712.00
2018-06-12T11:32:19.898Z,7828.00
2018-06-12T11:33:19.952Z,7940.00
2018-06-12T11:34:19.852Z,7936.00
2018-06-12T11:35:19.882Z,7888.00
2018-06-12T11:36:19.813Z,7840.00
2018-06-12T11:37:19.835Z,7776.00
2018-06-12T11:38:19.764Z,7652.00
2018-06-12T11:39:19.773Z,7556.00
2018-06-12T11:40:19.777Z,7396.00
2018-06-12T11:41:19.763Z,7364.00
2018-06-12T11:42:19.718Z,7364.00
2018-06-12T11:43:19.660Z,7356.00
2018-06-12T11:44:19.655Z,7316.00
2018-06-12T11:45:19.645Z,7208.00
2018-06-12T11:46:19.582Z,7096.00
2018-06-12T11:47:19.632Z,7056.00
2018-06-12T11:48:19.540Z,7144.00
2018-06-12T11:49:19.553Z,7152.00
2018-06-12T11:50:19.530Z,7224.00
2018-06-12T11:51:19.477Z,7272.00
2018-06-12T11:52:19.453Z,7280.00
2018-06-12T11:53:19.467Z,7312.00
2018-06-12T11:54:19.462Z,7348.00
2018-06-12T11:55:19.387Z,7384.00
2018-06-12T11:56:19.434Z,7408.00
2018-06-12T11:57:19.336Z,7540.00
2018-06-12T11:58:19.314Z,7784.00
2018-06-12T11:59:19.341Z,7992.00
2018-06-12T12:00:19.342Z,8220.00
2018-06-12T12:01:19.255Z,8324.00
2018-06-12T12:02:19.226Z,8544.00
2018-06-12T12:03:19.240Z,8828.00
2018-06-12T12:04:19.184Z,9184.00
2018-06-12T12:05:19.160Z,9420.00
2018-06-12T12:06:19.139Z,9660.00
2018-06-12T12:07:19.121Z,9712.00
2018-06-12T12:08:19.099Z,9900.00
2018-06-12T12:09:19.066Z,10232.00
2018-06-12T12:10:19.054Z,10452.00
2018-06-12T12:11:19.023Z,10640.00
2018-06-12T12:12:19.000Z,10760.00
2018-06-12T12:13:18.984Z,10648.00
2018-06-12T12:14:18.955Z,10220.00
2018-06-12T12:15:18.941Z,9548.00
2018-06-12T12:16:18.910Z,9060.00
2018-06-12T12:17:18.896Z,8884.00
2018-06-12T12:18:18.864Z,8668.00
2018-06-12T12:19:18.849Z,8548.00
2018-06-12T12:20:18.829Z,8496.00
2018-06-12T12:21:18.804Z,8348.00
2018-06-12T12:22:18.785Z,8220.00
2018-06-12T12:23:18.795Z,8016.00
2018-06-12T12:24:18.739Z,7844.00
2018-06-12T12:25:18.710Z,7512.00
2018-06-12T12:26:18.693Z,6968.00
2018-06-12T12:27:18.677Z,6728.00
2018-06-12T12:28:18.645Z,6800.00
2018-06-12T12:29:18.624Z,6832.00
2018-06-12T12:30:18.605Z,6720.00
2018-06-12T12:31:18.574Z,6524.00
2018-06-12T12:32:18.556Z,6316.00
2018-06-12T12:33:18.536Z,6032.00
2018-06-12T12:34:18.515Z,5760.00
2018-06-12T12:35:18.489Z,5660.00
2018-06-12T12:36:18.468Z,5760.00
2018-06-12T12:37:18.449Z,5896.00
2018-06-12T12:38:18.416Z,6020.00
2018-06-12T12:39:18.402Z,6072.00
2018-06-12T12:40:18.382Z,6036.00
2018-06-12T12:41:18.353Z,5980.00
2018-06-12T12:42:18.330Z,5932.00
2018-06-12T12:43:18.310Z,5916.00
2018-06-12T12:44:18.287Z,5960.00
2018-06-12T12:45:18.260Z,6064.00
2018-06-12T12:46:18.241Z,6216.00
2018-06-12T12:47:18.245Z,6356.00
2018-06-12T12:48:18.258Z,6496.00
2018-06-12T12:49:18.191Z,6696.00
2018-06-12T12:50:18.151Z,6880.00
2018-06-12T12:51:18.128Z,6972.00
2018-06-12T12:52:18.104Z,6908.00
2018-06-12T12:53:18.082Z,6704.00
2018-06-12T12:54:18.056Z,6180.00
2018-06-12T12:55:18.033Z,5724.00
2018-06-12T12:56:18.016Z,5352.00
2018-06-12T12:57:17.990Z,4808.00
2018-06-12T12:58:17.962Z,4392.00
2018-06-12T12:59:17.950Z,3956.00
2018-06-12T13:00:17.927Z,3708.00
2018-06-12T13:01:17.896Z,3680.00
2018-06-12T13:02:17.876Z,3756.00
2018-06-12T13:03:17.855Z,3800.00
2018-06-12T13:04:17.831Z,3896.00
2018-06-12T13:05:17.825Z,3960.00
2018-06-12T13:06:17.790Z,3964.00
2018-06-12T13:07:17.756Z,3928.00
2018-06-12T13:08:17.816Z,3992.00
2018-06-12T13:09:17.714Z,4060.00
2018-06-12T13:10:17.689Z,4028.00
2018-06-12T13:11:17.668Z,3840.00
2018-06-12T13:12:17.654Z,3712.00
2018-06-12T13:13:17.622Z,3692.00
2018-06-12T13:14:17.611Z,3552.00
2018-06-12T13:15:17.578Z,3380.00
2018-06-12T13:16:17.555Z,3512.00